Time;durP1;ratioP1;P1;durP2;ratioP2;P2;SDS_P1;SDS_P2;PMS_P1;PMS_P2;Temp;Humidity;BMP_temperature;BMP_pressure;BME280_temperature;BME280_humidity;BME280_pressure;Samples;Min_cycle;Max_cycle;Signal;HPM_P1;HPM_P2
2022/10/28 00:01:22;;;;;;;12.40;8.95;;;;;;;7.30;100.00;100567.80;1738335;81;21162;-70
2022/10/28 00:04:05;;;;;;;11.40;8.95;;;;;;;7.25;100.00;100559.22;1736831;81;21092;-70
2022/10/28 00:06:34;;;;;;;8.68;7.65;;;;;;;7.22;100.00;100556.66;1749305;82;21065;-69
2022/10/28 00:09:00;;;;;;;10.82;8.40;;;;;;;7.20;100.00;100557.97;1746906;81;21168;-69
2022/10/28 00:11:32;;;;;;;10.78;8.18;;;;;;;7.17;100.00;100555.87;1731185;81;21014;-70
2022/10/28 00:14:02;;;;;;;10.63;9.03;;;;;;;7.14;100.00;100552.88;1747423;81;21081;-70
2022/10/28 00:16:32;;;;;;;11.48;8.80;;;;;;;7.10;100.00;100549.89;1735044;81;21867;-70
2022/10/28 00:18:59;;;;;;;9.18;8.25;;;;;;;7.07;100.00;100552.94;1730181;82;21076;-69
2022/10/28 00:21:30;;;;;;;11.20;8.05;;;;;;;7.02;100.00;100554.27;1723420;81;21232;-69
2022/10/28 00:23:57;;;;;;;12.15;8.58;;;;;;;6.98;100.00;100548.73;1739533;81;20994;-69
2022/10/28 00:26:28;;;;;;;11.00;8.73;;;;;;;6.95;100.00;100563.42;1723126;82;20959;-70
2022/10/28 00:29:01;;;;;;;10.75;8.60;;;;;;;6.89;100.00;100561.30;1744285;81;21061;-69
2022/10/28 00:31:29;;;;;;;12.47;9.18;;;;;;;6.85;100.00;100563.92;1725790;81;21006;-69
2022/10/28 00:33:58;;;;;;;13.50;9.58;;;;;;;6.79;100.00;100567.44;1739589;81;21120;-69
2022/10/28 00:36:36;;;;;;;14.93;10.43;;;;;;;6.73;100.00;100567.92;1728944;82;20954;-69
2022/10/28 00:39:10;;;;;;;13.48;11.25;;;;;;;6.67;100.00;100566.23;1740165;82;21033;-69
2022/10/28 00:41:38;;;;;;;13.30;11.83;;;;;;;6.63;100.00;100572.72;1734402;81;20958;-69
2022/10/28 00:44:48;;;;;;;11.50;10.03;;;;;;;6.59;100.00;100569.33;1726114;81;20986;-69
2022/10/28 00:47:40;;;;;;;10.50;9.35;;;;;;;6.56;100.00;100577.97;1727930;82;21171;-69
2022/10/28 00:50:47;;;;;;;12.30;9.93;;;;;;;6.54;100.00;100580.99;1716808;81;20959;-70
2022/10/28 00:53:18;;;;;;;13.90;10.13;;;;;;;6.52;100.00;100577.98;1740779;81;20969;-70
2022/10/28 00:55:44;;;;;;;11.90;10.15;;;;;;;6.48;100.00;100575.86;1728001;82;21018;-70
2022/10/28 00:58:12;;;;;;;13.08;9.08;;;;;;;6.48;100.00;100579.73;1699884;83;21018;-70
2022/10/28 01:00:38;;;;;;;11.60;9.10;;;;;;;6.47;100.00;100576.72;1729579;81;21156;-70
2022/10/28 01:03:05;;;;;;;12.33;9.70;;;;;;;6.47;100.00;100571.99;1737059;81;20943;-70
2022/10/28 01:05:35;;;;;;;13.28;10.28;;;;;;;6.47;100.00;100577.16;1734380;81;21046;-70
2022/10/28 01:08:03;;;;;;;13.08;9.93;;;;;;;6.45;100.00;100580.19;1745403;81;21473;-70
2022/10/28 01:10:52;;;;;;;11.75;9.70;;;;;;;6.43;100.00;100584.07;1724026;81;21063;-70
2022/10/28 01:13:45;;;;;;;11.00;8.93;;;;;;;6.39;100.00;100568.63;1700004;81;21172;-70
2022/10/28 01:16:17;;;;;;;11.57;9.38;;;;;;;6.30;100.00;100563.07;1722644;81;20954;-70
2022/10/28 01:19:24;;;;;;;11.08;9.60;;;;;;;6.30;100.00;100563.07;1742114;82;20962;-69
2022/10/28 01:22:07;;;;;;;12.07;10.45;;;;;;;6.29;100.00;100560.06;1724482;82;21003;-69
2022/10/28 01:24:49;;;;;;;10.72;9.23;;;;;;;6.23;100.00;100557.50;1707401;83;21109;-69
2022/10/28 01:27:56;;;;;;;14.75;9.50;;;;;;;6.20;100.00;100557.52;1713741;81;21905;-70
2022/10/28 01:30:27;;;;;;;10.30;9.00;;;;;;;6.16;100.00;100561.88;1743088;82;21109;-70
2022/10/28 01:37:01;;;;;;;13.45;10.35;;;;;;;6.08;100.00;100550.72;1748380;82;21048;-69
2022/10/28 01:39:45;;;;;;;10.40;9.05;;;;;;;6.03;100.00;100556.34;1720109;81;21001;-69
2022/10/28 01:42:49;;;;;;;10.98;9.23;;;;;;;6.01;100.00;100558.06;1728806;81;21155;-70
2022/10/28 01:45:26;;;;;;;16.17;10.78;;;;;;;5.97;100.00;100555.53;1745956;82;20954;-70
2022/10/28 01:48:17;;;;;;;11.78;10.25;;;;;;;5.94;100.00;100560.71;1713252;83;21467;-69
2022/10/28 01:51:00;;;;;;;13.40;10.82;;;;;;;5.92;100.00;100555.55;1713162;83;21431;-69
2022/10/28 01:53:30;;;;;;;10.80;9.65;;;;;;;5.90;100.00;100554.70;1703954;83;20964;-69
2022/10/28 01:56:00;;;;;;;15.10;11.97;;;;;;;5.90;100.00;100557.28;1706571;83;21143;-69
2022/10/28 01:58:30;;;;;;;15.38;12.68;;;;;;;5.87;100.00;100557.26;1657710;85;20996;-69
2022/10/28 02:00:59;;;;;;;16.42;12.07;;;;;;;5.86;100.00;100565.44;1728135;82;20995;-69
2022/10/28 02:03:40;;;;;;;12.15;10.28;;;;;;;5.84;100.00;100560.71;1728860;81;21014;-68
2022/10/28 02:06:11;;;;;;;13.43;11.15;;;;;;;5.82;100.00;100561.58;1728787;81;21143;-69
2022/10/28 02:09:07;;;;;;;12.25;10.98;;;;;;;5.79;100.00;100562.48;1695548;83;21120;-69
2022/10/28 02:12:21;;;;;;;13.90;11.55;;;;;;;5.76;100.00;100574.53;1713054;83;20955;-69
2022/10/28 02:15:20;;;;;;;17.55;13.18;;;;;;;5.70;100.00;100574.55;1669065;84;21148;-69
2022/10/28 02:18:19;;;;;;;12.40;9.50;;;;;;;5.63;100.00;100570.27;1723693;82;20981;-69
2022/10/28 02:20:54;;;;;;;12.00;9.58;;;;;;;5.57;100.00;100564.72;1742789;81;21001;-69
2022/10/28 02:23:58;;;;;;;10.85;9.73;;;;;;;5.55;100.00;100563.86;1741859;82;21156;-69
2022/10/28 02:26:44;;;;;;;12.93;10.60;;;;;;;5.54;100.00;100570.75;1717282;81;20983;-69
2022/10/28 02:29:32;;;;;;;12.03;9.85;;;;;;;5.52;100.00;100566.02;1725012;81;20991;-68
2022/10/28 02:32:05;;;;;;;10.93;8.18;;;;;;;5.48;100.00;100573.34;1731668;81;21070;-68
2022/10/28 02:34:49;;;;;;;10.80;8.35;;;;;;;5.46;100.00;100563.45;1741623;81;21187;-69
2022/10/28 02:37:23;;;;;;;9.63;8.63;;;;;;;5.43;100.00;100565.17;1736368;81;21233;-69
2022/10/28 02:39:53;;;;;;;11.70;10.50;;;;;;;5.40;100.00;100568.63;1745472;82;21081;-69
2022/10/28 02:42:33;;;;;;;11.28;10.15;;;;;;;5.37;100.00;100568.66;1698447;83;21038;-69
2022/10/28 02:45:20;;;;;;;9.33;8.33;;;;;;;5.34;100.00;100569.95;1672998;84;21034;-68
2022/10/28 02:47:57;;;;;;;10.30;8.80;;;;;;;5.32;100.00;100569.09;1702000;83;20939;-69
2022/10/28 02:50:34;;;;;;;12.65;9.88;;;;;;;5.30;100.00;100568.23;1708083;83;21201;-69
2022/10/28 02:53:04;;;;;;;15.05;11.15;;;;;;;5.31;100.00;100566.52;1696170;83;21044;-68
2022/10/28 02:55:34;;;;;;;12.47;10.80;;;;;;;5.32;100.00;100564.36;1692622;83;21014;-69
2022/10/28 02:58:00;;;;;;;10.85;9.10;;;;;;;5.32;100.00;100563.08;1675268;84;21054;-69
2022/10/28 03:00:27;;;;;;;12.50;8.95;;;;;;;5.32;100.00;100565.66;1672224;85;20982;-69
2022/10/28 03:02:54;;;;;;;14.47;9.80;;;;;;;5.33;100.00;100577.69;1680857;85;21358;-69
2022/10/28 03:05:20;;;;;;;13.78;9.98;;;;;;;5.35;100.00;100577.26;1674468;84;21010;-69
2022/10/28 03:07:46;;;;;;;16.32;11.38;;;;;;;5.34;100.00;100576.41;1673294;85;21507;-68
2022/10/28 03:10:13;;;;;;;10.78;9.68;;;;;;;5.36;100.00;100582.84;1732705;81;20965;-69
2022/10/28 03:12:41;;;;;;;12.95;9.58;;;;;;;5.37;100.00;100581.98;1727390;82;21370;-69
2022/10/28 03:15:09;;;;;;;10.78;9.68;;;;;;;5.39;100.00;100583.70;1741516;81;21158;-69
2022/10/28 03:17:37;;;;;;;14.47;11.35;;;;;;;5.42;100.00;100582.38;1729206;82;20986;-69
2022/10/28 03:20:06;;;;;;;13.98;10.00;;;;;;;5.49;100.00;100585.38;1740794;81;21030;-69
2022/10/28 03:22:33;;;;;;;11.85;9.63;;;;;;;5.54;100.00;100584.94;1672913;84;21501;-69
2022/10/28 03:25:06;;;;;;;11.57;8.05;;;;;;;5.62;100.00;100589.20;1735339;82;21596;-69
2022/10/28 03:27:41;;;;;;;10.03;8.60;;;;;;;5.65;100.00;100592.63;1729009;81;21042;-69
2022/10/28 03:30:09;;;;;;;11.53;9.68;;;;;;;5.72;100.00;100581.86;1742288;81;21101;-69
2022/10/28 03:32:43;;;;;;;11.55;8.95;;;;;;;5.75;100.00;100581.85;1733390;81;21517;-68
2022/10/28 03:35:09;;;;;;;9.13;8.18;;;;;;;5.74;100.00;100580.13;1727162;81;21490;-68
2022/10/28 03:37:43;;;;;;;9.53;8.53;;;;;;;5.71;100.00;100577.13;1725080;81;21041;-68
2022/10/28 03:40:11;;;;;;;10.13;9.13;;;;;;;5.68;100.00;100577.57;1730251;81;21894;-68
2022/10/28 03:42:42;;;;;;;10.65;9.55;;;;;;;5.64;100.00;100577.15;1723621;81;20950;-69
2022/10/28 03:45:09;;;;;;;14.35;12.03;;;;;;;5.58;100.00;100573.32;1717067;81;21441;-68
2022/10/28 03:47:36;;;;;;;13.08;11.68;;;;;;;5.51;100.00;100577.20;1729309;81;21120;-69
2022/10/28 03:50:03;;;;;;;12.78;11.45;;;;;;;5.44;100.00;100574.20;1733193;81;21541;-69
2022/10/28 03:52:31;;;;;;;12.47;10.85;;;;;;;5.42;100.00;100571.20;1730198;82;20990;-69
2022/10/28 03:54:59;;;;;;;14.10;12.00;;;;;;;5.36;100.00;100576.40;1669920;84;21030;-68
2022/10/28 03:57:37;;;;;;;16.05;12.50;;;;;;;5.28;100.00;100573.83;1729467;81;21170;-69
2022/10/28 04:00:06;;;;;;;15.75;11.65;;;;;;;5.24;100.00;100573.40;1726733;81;21030;-68
2022/10/28 04:02:34;;;;;;;12.10;9.08;;;;;;;5.17;100.00;100562.69;1738292;81;20958;-66
2022/10/28 04:05:20;;;;;;;11.30;8.55;;;;;;;5.12;100.00;100564.41;1729667;81;21209;-66
2022/10/28 04:07:47;;;;;;;10.85;8.93;;;;;;;5.06;100.00;100566.99;1732019;81;21726;-66
2022/10/28 04:10:14;;;;;;;10.75;8.90;;;;;;;4.99;100.00;100563.59;1743216;81;21410;-66
2022/10/28 04:12:41;;;;;;;10.90;9.80;;;;;;;4.94;100.00;100560.58;1748862;81;21465;-67
2022/10/28 04:15:08;;;;;;;16.77;9.35;;;;;;;4.92;100.00;100558.42;1737672;81;21092;-66
2022/10/28 04:17:35;;;;;;;14.05;8.33;;;;;;;4.89;100.00;100567.02;1744988;82;21157;-67
2022/10/28 04:20:09;;;;;;;17.95;9.40;;;;;;;4.87;100.00;100575.61;1749250;81;20994;-67
2022/10/28 04:22:36;;;;;;;20.30;10.82;;;;;;;4.83;100.00;100579.47;1744756;82;20954;-67
2022/10/28 04:25:04;;;;;;;20.35;12.07;;;;;;;4.78;100.00;100585.08;1720398;81;21483;-67
2022/10/28 04:27:31;;;;;;;13.20;9.48;;;;;;;4.71;100.00;100584.64;1729655;82;21050;-67
2022/10/28 04:29:57;;;;;;;12.80;9.48;;;;;;;4.64;100.00;100577.76;1717041;82;21173;-67
2022/10/28 04:32:24;;;;;;;14.43;8.78;;;;;;;4.60;100.00;100572.59;1743897;81;20954;-67
2022/10/28 04:34:50;;;;;;;23.98;10.65;;;;;;;4.57;100.00;100577.78;1749199;82;21009;-67
2022/10/28 04:37:17;;;;;;;23.65;10.30;;;;;;;4.55;100.00;100567.89;1737321;82;21419;-67
2022/10/28 04:39:43;;;;;;;15.68;9.53;;;;;;;4.53;100.00;100565.31;1747450;81;21455;-67
2022/10/28 04:42:10;;;;;;;17.23;9.50;;;;;;;4.52;100.00;100567.46;1732860;82;21151;-66
2022/10/28 04:44:37;;;;;;;25.45;10.70;;;;;;;4.52;100.00;100571.33;1725615;82;21014;-66
2022/10/28 04:47:04;;;;;;;20.55;9.63;;;;;;;4.50;100.00;100567.89;1728601;81;21022;-66
2022/10/28 04:49:31;;;;;;;26.17;10.95;;;;;;;4.47;100.00;100562.73;1720312;81;20999;-67
2022/10/28 04:52:05;;;;;;;11.85;8.45;;;;;;;4.45;100.00;100565.30;1742173;81;20950;-67
2022/10/28 04:54:31;;;;;;;20.00;11.93;;;;;;;4.46;100.00;100559.72;1740788;81;21775;-66
2022/10/28 04:56:59;;;;;;;39.98;26.10;;;;;;;4.47;100.00;100562.73;1725809;82;20949;-66
2022/10/28 04:59:25;;;;;;;24.70;11.88;;;;;;;4.48;100.00;100572.17;1723757;81;21548;-66
2022/10/28 05:01:59;;;;;;;22.17;12.07;;;;;;;4.48;100.00;100565.30;1738076;81;21536;-66
2022/10/28 05:04:26;;;;;;;37.08;13.62;;;;;;;4.48;100.00;100560.16;1724828;82;20954;-67
2022/10/28 05:06:52;;;;;;;25.77;12.85;;;;;;;4.54;100.00;100558.45;1735046;81;21163;-67
2022/10/28 05:09:19;;;;;;;33.75;19.50;;;;;;;4.60;100.00;100550.27;1740825;81;21093;-67
2022/10/28 05:11:54;;;;;;;184.78;79.62;;;;;;;4.66;100.00;100556.72;1738557;81;20962;-66
2022/10/28 05:14:21;;;;;;;49.03;23.77;;;;;;;4.71;100.00;100554.15;1734279;81;21103;-67
2022/10/28 05:16:51;;;;;;;27.65;14.15;;;;;;;4.78;100.00;100545.56;1709074;82;21057;-68
2022/10/28 05:19:24;;;;;;;22.13;13.20;;;;;;;4.86;100.00;100556.70;1721631;82;21675;-67
2022/10/28 05:21:59;;;;;;;16.32;11.05;;;;;;;4.90;100.00;100554.56;1680174;82;21109;-68
